• Join FlightAware (Why Join?)
  • Login
  • US Flag 
08:10PM EDT


 

Airport Tracker/Info


-or-


 

Live Flight TrackerFlight Track Log ✈ FLG3842 ✈ 02-May-2012 ✈ KCLT - KATL

Flight Track Log - Related Links

Times and Time Zones

All times are in EDT time to prevent confusion due to time zone crossing. See the FLG3842 flight status page for this flight to view local times or setup timezone preferences in your user account.

Time Position Orientation Groundspeed Altitude Reporting Facility
EDT Latitude Longitude Course Direction KTS MPH feet Rate Location/Type
03:43PM 35.1933 -80.9533 178° South 155 178 1,300  Level Atlanta Center
03:44PM 35.1619 -80.9519 200° South 171 197 2,300 1,680 Climbing Atlanta Center
03:45PM 35.1000 -80.9797 261° West 257 296 4,200 2,160 Climbing Atlanta Center
03:46PM 35.0914 -81.0486 278° West 247 284 6,200 2,100 Climbing Atlanta Center
03:47PM 35.1017 -81.1344 291° West 280 322 8,000 1,200 Climbing Atlanta Center
03:48PM 35.1267 -81.2150 277° West 281 323 8,600 1,500 Climbing Atlanta Center
03:49PM 35.1375 -81.3211 274° West 295 339 11,100 1,740 Climbing Atlanta Center
03:50PM 35.1439 -81.4328 270° West 315 362 12,100 1,440 Climbing Atlanta Center
03:51PM 35.1444 -81.5597 263° West 353 406 14,000 1,800 Climbing Atlanta Center
03:52PM 35.1303 -81.6922 252° West 388 447 15,800 1,860 Climbing Atlanta Center
03:53PM 35.0972 -81.8200 253° West 393 452 17,800 1,860 Climbing Atlanta Center
03:54PM 35.0622 -81.9556 252° West 408 470 19,600 1,860 Climbing Atlanta Center
03:55PM 35.0289 -82.0831 252° West 413 475 21,600 1,200 Climbing Atlanta Center
03:56PM 34.9972 -82.2006 250° West 413 475 22,000 180 Climbing Atlanta Center
03:57PM 34.9575 -82.3356 252° West 413 475 22,000  Level Atlanta Center
03:58PM 34.9217 -82.4733 252° West 413 475 22,000  Level Atlanta Center
03:59PM 34.8858 -82.6081 252° West 418 481 22,000  Level Atlanta Center
04:00PM 34.8497 -82.7403 237° Southwest 423 487 22,000  Level Atlanta Center
04:01PM 34.7861 -82.8603 230° Southwest 423 487 22,000  Level Atlanta Center
04:02PM 34.7058 -82.9775 230° Southwest 423 487 22,000  Level Atlanta Center
04:03PM 34.6378 -83.0769 228° Southwest 423 487 22,000  Level Atlanta Center
04:04PM 34.5614 -83.1786 228° Southwest 423 487 22,000 -900 Level Atlanta Center
04:05PM 34.4847 -83.2803 231° Southwest 409 471 20,300 -1,740 Descending Atlanta Center
04:06PM 34.4144 -83.3842 230° Southwest 409 471 18,500 -1,800 Descending Atlanta Center
04:07PM 34.3439 -83.4853 230° Southwest 401 461 16,800 -1,740 Descending Atlanta Center
04:08PM 34.2756 -83.5839 228° Southwest 396 456 15,100 -1,680 Descending Atlanta Center
04:09PM 34.1986 -83.6872 230° Southwest 390 449 13,500 -1,560 Descending Atlanta Center
04:10PM 34.1300 -83.7853 227° Southwest 382 440 12,100 -780 Descending Atlanta Center
04:11PM 34.0697 -83.8633 221° Southwest 355 409 12,000 -720 Descending Atlanta Center
04:12PM 34.0092 -83.9261 197° South 312 359 10,700 -1,020 Descending Atlanta Center
04:13PM 33.9361 -83.9536 185° South 267 307 10,000 -840 Descending Atlanta Center
04:14PM 33.8611 -83.9614 188° South 273 314 9,100 -960 Descending Atlanta Center
04:15PM 33.7900 -83.9739 186° South 273 314 8,100 -1,020 Descending Atlanta Center
04:16PM 33.7150 -83.9839 189° South 273 314 7,100 -1,080 Descending Atlanta Center
04:17PM 33.6503 -83.9964 254° West 273 314 6,000 -600 Descending Atlanta Center
04:18PM 33.6294 -84.0811 275° West 246 283 6,000 -360 Level Atlanta Center
04:19PM 33.6333 -84.1333 270° West 261 300 5,500 -1,320 Descending Atlanta TRACON
04:20PM 33.6333 -84.2167 270° West 249 287 4,000 -1,320 Descending Atlanta TRACON
04:21PM 33.6333 -84.3000 270° West 209 241 2,900 -1,020 Descending Atlanta TRACON
04:22PM 33.6333 -84.3500 270° West 170 196 2,000 -900 Descending Atlanta TRACON
04:23PM 33.6333 -84.4000 270° West 143 165 1,200 -840 Descending Atlanta TRACON